Time;durP1;ratioP1;P1;durP2;ratioP2;P2;SDS_P1;SDS_P2;PMS_P1;PMS_P2;Temp;Humidity;BMP_temperature;BMP_pressure;BME280_temperature;BME280_humidity;BME280_pressure;Samples;Min_cycle;Max_cycle;Signal;HPM_P1;HPM_P2
2022/09/08 00:01:12;;;;;;;5.53;4.63;;;;;;;;;;5052075;28;20477;-78
2022/09/08 00:03:39;;;;;;;4.20;3.73;;;;;;;;;;5051597;28;20449;-77
2022/09/08 00:06:10;;;;;;;4.70;3.90;;;;;;;;;;5051735;28;20457;-78
2022/09/08 00:08:39;;;;;;;5.20;4.50;;;;;;;;;;5052666;28;20461;-78
2022/09/08 00:11:07;;;;;;;5.00;3.80;;;;;;;;;;5053270;28;20887;-77
2022/09/08 00:13:35;;;;;;;5.07;4.67;;;;;;;;;;5052922;28;20446;-77
2022/09/08 00:16:03;;;;;;;4.57;4.17;;;;;;;;;;5051764;28;20869;-79
2022/09/08 00:18:30;;;;;;;4.00;3.80;;;;;;;;;;5051973;28;20508;-79
2022/09/08 00:20:57;;;;;;;4.30;3.90;;;;;;;;;;5051954;28;21004;-78
2022/09/08 00:23:24;;;;;;;4.00;3.70;;;;;;;;;;5053051;28;20452;-78
2022/09/08 00:25:52;;;;;;;4.30;3.90;;;;;;;;;;5054131;28;20449;-77
2022/09/08 00:28:19;;;;;;;4.33;3.93;;;;;;;;;;5052775;28;20497;-77
2022/09/08 00:30:46;;;;;;;5.17;4.80;;;;;;;;;;5051752;28;20822;-78
2022/09/08 00:33:13;;;;;;;4.57;3.80;;;;;;;;;;5051557;28;20503;-77
2022/09/08 00:35:43;;;;;;;6.50;4.27;;;;;;;;;;5051636;28;20453;-78
2022/09/08 00:38:10;;;;;;;5.80;5.03;;;;;;;;;;5052030;28;21030;-77
2022/09/08 00:40:41;;;;;;;6.00;5.00;;;;;;;;;;5051359;28;20438;-78
2022/09/08 00:43:10;;;;;;;6.70;5.00;;;;;;;;;;5051107;28;20617;-78
2022/09/08 00:45:39;;;;;;;9.80;5.20;;;;;;;;;;5050893;28;20449;-77
2022/09/08 00:48:08;;;;;;;6.80;5.27;;;;;;;;;;5052776;28;20515;-78
2022/09/08 00:50:35;;;;;;;5.13;4.73;;;;;;;;;;5052240;28;20446;-77
2022/09/08 00:53:03;;;;;;;4.90;4.50;;;;;;;;;;5051946;28;20945;-78
2022/09/08 00:55:31;;;;;;;5.43;4.90;;;;;;;;;;5051484;28;20442;-78
2022/09/08 00:57:58;;;;;;;5.23;4.73;;;;;;;;;;5051401;28;20553;-78
2022/09/08 01:00:26;;;;;;;5.77;4.20;;;;;;;;;;5051668;28;20544;-78
2022/09/08 01:02:53;;;;;;;6.40;4.30;;;;;;;;;;5051452;28;20568;-78
2022/09/08 01:05:21;;;;;;;4.80;4.40;;;;;;;;;;5051729;28;20446;-78
2022/09/08 01:13:37;;;;;;;5.27;4.57;;;;;;;;;;5058127;28;20436;-77
2022/09/08 01:16:06;;;;;;;5.87;5.47;;;;;;;;;;5061034;28;20418;-77
2022/09/08 01:18:34;;;;;;;5.10;4.70;;;;;;;;;;5074419;28;20532;-78
2022/09/08 01:21:06;;;;;;;5.33;4.93;;;;;;;;;;5075101;28;20470;-77
2022/09/08 01:23:57;;;;;;;5.20;4.80;;;;;;;;;;5075529;28;20433;-76
2022/09/08 01:26:30;;;;;;;5.10;4.80;;;;;;;;;;5053125;28;20433;-78
2022/09/08 01:29:00;;;;;;;4.77;4.47;;;;;;;;;;5053732;28;20885;-77
2022/09/08 01:31:27;;;;;;;5.57;5.10;;;;;;;;;;5052555;28;20430;-79
2022/09/08 01:33:54;;;;;;;5.07;4.77;;;;;;;;;;5052222;28;20446;-78
2022/09/08 01:36:21;;;;;;;5.17;4.50;;;;;;;;;;5051977;28;20495;-78
2022/09/08 01:38:48;;;;;;;5.27;4.83;;;;;;;;;;5051831;28;20461;-77
2022/09/08 01:41:15;;;;;;;5.63;5.07;;;;;;;;;;5053006;28;20853;-78
2022/09/08 01:43:42;;;;;;;6.10;5.50;;;;;;;;;;5051752;28;20499;-77
2022/09/08 01:46:11;;;;;;;5.80;5.40;;;;;;;;;;5050523;28;20457;-77
2022/09/08 01:48:38;;;;;;;6.30;5.70;;;;;;;;;;5050624;28;20458;-78
2022/09/08 01:51:06;;;;;;;5.27;4.87;;;;;;;;;;5051223;28;20453;-77
2022/09/08 01:53:33;;;;;;;6.20;5.13;;;;;;;;;;5050023;28;20445;-77
2022/09/08 01:56:01;;;;;;;4.90;4.60;;;;;;;;;;5049688;28;20953;-78
2022/09/08 01:58:28;;;;;;;4.80;4.50;;;;;;;;;;5050002;28;20509;-78
2022/09/08 02:00:55;;;;;;;8.00;4.70;;;;;;;;;;5050105;28;20476;-78
2022/09/08 02:03:24;;;;;;;5.90;5.40;;;;;;;;;;5051170;28;20461;-78
2022/09/08 02:05:51;;;;;;;5.57;5.17;;;;;;;;;;5050399;28;20515;-78
2022/09/08 02:08:18;;;;;;;5.60;5.10;;;;;;;;;;5049958;28;20555;-77
2022/09/08 02:10:53;;;;;;;5.40;5.00;;;;;;;;;;5049889;28;20962;-77
2022/09/08 02:13:20;;;;;;;6.60;5.13;;;;;;;;;;5049214;28;20448;-78
2022/09/08 02:15:47;;;;;;;7.73;5.07;;;;;;;;;;5049756;28;20540;-78
2022/09/08 02:18:14;;;;;;;5.23;4.73;;;;;;;;;;5049540;28;20522;-77
2022/09/08 02:20:42;;;;;;;4.77;4.30;;;;;;;;;;5049640;28;20454;-78
2022/09/08 02:23:09;;;;;;;4.40;4.10;;;;;;;;;;5049265;28;20533;-78
2022/09/08 02:25:36;;;;;;;6.93;3.90;;;;;;;;;;5049920;28;20445;-79
2022/09/08 02:28:03;;;;;;;5.67;3.97;;;;;;;;;;5049730;28;20991;-78
2022/09/08 02:30:30;;;;;;;3.43;3.23;;;;;;;;;;5050161;28;20446;-79
2022/09/08 02:32:57;;;;;;;3.53;3.00;;;;;;;;;;5049444;28;20438;-78
2022/09/08 02:35:24;;;;;;;3.93;3.40;;;;;;;;;;5049748;28;20803;-78
2022/09/08 02:37:53;;;;;;;3.30;3.00;;;;;;;;;;5051252;28;20475;-78
2022/09/08 02:40:20;;;;;;;3.43;2.97;;;;;;;;;;5053152;28;20453;-78
2022/09/08 02:42:47;;;;;;;3.53;2.83;;;;;;;;;;5052983;28;20477;-78
2022/09/08 02:45:14;;;;;;;2.93;2.73;;;;;;;;;;5053367;28;20553;-78
2022/09/08 02:47:41;;;;;;;2.50;2.30;;;;;;;;;;5053111;28;20466;-77
2022/09/08 02:50:10;;;;;;;2.80;2.60;;;;;;;;;;5053220;28;20446;-78
2022/09/08 02:52:37;;;;;;;2.70;2.50;;;;;;;;;;5053034;28;20465;-78
2022/09/08 02:55:05;;;;;;;3.50;2.73;;;;;;;;;;5052570;28;20449;-77
2022/09/08 02:57:32;;;;;;;2.20;2.10;;;;;;;;;;5053201;28;20476;-78
2022/09/08 02:59:59;;;;;;;3.10;1.80;;;;;;;;;;5053186;28;20445;-77
2022/09/08 03:02:26;;;;;;;1.83;1.73;;;;;;;;;;5052605;28;20489;-77
2022/09/08 03:04:53;;;;;;;2.87;2.67;;;;;;;;;;5052374;28;20453;-79
2022/09/08 03:07:21;;;;;;;1.90;1.80;;;;;;;;;;5053539;28;20481;-79
2022/09/08 03:09:49;;;;;;;2.03;1.90;;;;;;;;;;5053183;28;20459;-78
2022/09/08 03:12:17;;;;;;;2.40;2.20;;;;;;;;;;5053165;28;20433;-78
2022/09/08 03:14:44;;;;;;;2.10;1.97;;;;;;;;;;5053386;28;20503;-78
2022/09/08 03:17:11;;;;;;;3.30;2.20;;;;;;;;;;5053083;28;20909;-78
2022/09/08 03:19:38;;;;;;;2.20;1.97;;;;;;;;;;5055071;28;20449;-78
2022/09/08 03:22:05;;;;;;;2.23;1.93;;;;;;;;;;5054415;28;20897;-77
2022/09/08 03:24:34;;;;;;;1.60;1.40;;;;;;;;;;5054125;28;21097;-77
2022/09/08 03:27:01;;;;;;;2.10;2.00;;;;;;;;;;5054264;28;20552;-77
2022/09/08 03:29:31;;;;;;;2.00;1.90;;;;;;;;;;5067001;28;20448;-77
2022/09/08 03:31:58;;;;;;;1.80;1.70;;;;;;;;;;5074832;28;20438;-77
2022/09/08 03:34:26;;;;;;;1.80;1.70;;;;;;;;;;5074243;28;20468;-77
2022/09/08 03:36:53;;;;;;;1.93;1.83;;;;;;;;;;5074841;28;20460;-76
2022/09/08 03:39:20;;;;;;;1.80;1.70;;;;;;;;;;5073893;28;20541;-78
2022/09/08 03:41:47;;;;;;;1.90;1.80;;;;;;;;;;5072437;28;20508;-77
2022/09/08 03:44:14;;;;;;;1.50;1.40;;;;;;;;;;5073076;28;20449;-77
2022/09/08 03:46:42;;;;;;;2.23;1.90;;;;;;;;;;5069263;28;20449;-77
2022/09/08 03:49:09;;;;;;;1.87;1.60;;;;;;;;;;5056404;28;20465;-78
2022/09/08 03:51:36;;;;;;;1.80;1.70;;;;;;;;;;5052904;28;20445;-78
2022/09/08 03:56:50;;;;;;;1.50;1.40;;;;;;;;;;5052941;28;20453;-78
2022/09/08 03:59:17;;;;;;;1.77;1.67;;;;;;;;;;5061509;28;20441;-78
2022/09/08 04:01:46;;;;;;;2.53;1.60;;;;;;;;;;5076558;28;20486;-77
2022/09/08 04:04:13;;;;;;;1.57;1.50;;;;;;;;;;5076885;28;20441;-78
2022/09/08 04:06:40;;;;;;;1.70;1.40;;;;;;;;;;5076972;28;20509;-78
2022/09/08 04:09:07;;;;;;;3.00;1.60;;;;;;;;;;5072183;28;20917;-78
2022/09/08 04:11:35;;;;;;;1.67;1.57;;;;;;;;;;5051876;28;20441;-78
2022/09/08 04:14:02;;;;;;;2.20;1.40;;;;;;;;;;5051645;28;20975;-78
2022/09/08 04:16:30;;;;;;;2.03;1.83;;;;;;;;;;5051816;28;20463;-78
2022/09/08 04:18:58;;;;;;;1.40;1.30;;;;;;;;;;5051937;28;20457;-78
2022/09/08 04:21:25;;;;;;;1.50;1.40;;;;;;;;;;5051422;28;20442;-78
2022/09/08 04:23:52;;;;;;;1.43;1.40;;;;;;;;;;5051279;28;20482;-78
2022/09/08 04:26:19;;;;;;;3.17;1.40;;;;;;;;;;5051300;28;20450;-78
2022/09/08 04:28:46;;;;;;;1.63;1.33;;;;;;;;;;5051561;28;20469;-78
2022/09/08 04:31:15;;;;;;;1.77;1.30;;;;;;;;;;5052494;28;20449;-78
2022/09/08 04:33:42;;;;;;;3.70;1.30;;;;;;;;;;5052134;28;20524;-78
2022/09/08 04:36:12;;;;;;;3.20;1.87;;;;;;;;;;5052038;28;20525;-78
2022/09/08 04:38:39;;;;;;;1.00;1.00;;;;;;;;;;5051438;28;20496;-78
2022/09/08 04:41:07;;;;;;;1.40;1.40;;;;;;;;;;5051474;28;20449;-77
2022/09/08 04:43:34;;;;;;;3.47;1.87;;;;;;;;;;5050921;28;20477;-78
2022/09/08 04:46:02;;;;;;;1.60;1.50;;;;;;;;;;5052026;28;20446;-76
2022/09/08 04:48:30;;;;;;;1.60;1.20;;;;;;;;;;5052069;28;20476;-77
2022/09/08 04:50:57;;;;;;;1.20;1.20;;;;;;;;;;5051902;28;20448;-77
2022/09/08 04:53:26;;;;;;;2.90;1.50;;;;;;;;;;5051221;28;20944;-77
2022/09/08 04:55:53;;;;;;;1.90;1.40;;;;;;;;;;5051121;28;20442;-78
2022/09/08 04:58:20;;;;;;;2.30;1.40;;;;;;;;;;5051276;28;20464;-78
2022/09/08 05:00:47;;;;;;;1.53;1.43;;;;;;;;;;5050852;28;20441;-78
2022/09/08 05:03:14;;;;;;;1.53;1.30;;;;;;;;;;5051473;28;20489;-77
2022/09/08 05:05:41;;;;;;;2.10;1.33;;;;;;;;;;5051990;28;20453;-78
2022/09/08 05:08:09;;;;;;;1.50;1.37;;;;;;;;;;5051977;28;20469;-78
2022/09/08 05:10:37;;;;;;;3.40;1.50;;;;;;;;;;5051268;28;20955;-78
2022/09/08 05:13:04;;;;;;;2.23;1.70;;;;;;;;;;5051561;28;20445;-78
2022/09/08 05:15:31;;;;;;;2.47;1.70;;;;;;;;;;5052923;28;20430;-77
2022/09/08 05:17:58;;;;;;;3.10;1.80;;;;;;;;;;5050452;28;20469;-77
2022/09/08 05:20:25;;;;;;;1.90;1.60;;;;;;;;;;5050443;28;20449;-78
2022/09/08 05:22:52;;;;;;;1.63;1.40;;;;;;;;;;5050109;28;20513;-77
2022/09/08 05:25:19;;;;;;;1.33;1.33;;;;;;;;;;5051397;28;20453;-76
2022/09/08 05:27:50;;;;;;;1.57;1.47;;;;;;;;;;5050145;28;20477;-77
2022/09/08 05:30:17;;;;;;;2.53;1.60;;;;;;;;;;5050598;28;20453;-77
2022/09/08 05:32:44;;;;;;;1.57;1.47;;;;;;;;;;5050090;28;20448;-78
2022/09/08 05:35:11;;;;;;;2.33;2.20;;;;;;;;;;5049948;28;20449;-77
2022/09/08 05:37:38;;;;;;;3.83;2.00;;;;;;;;;;5050182;28;20461;-77
2022/09/08 05:40:06;;;;;;;2.13;1.40;;;;;;;;;;5049963;28;20452;-77
2022/09/08 05:42:33;;;;;;;1.63;1.53;;;;;;;;;;5049816;28;20923;-76
2022/09/08 05:45:01;;;;;;;2.93;1.50;;;;;;;;;;5050161;28;20453;-77
2022/09/08 05:47:28;;;;;;;2.60;1.50;;;;;;;;;;5050006;28;20480;-77
2022/09/08 05:49:56;;;;;;;2.20;2.00;;;;;;;;;;5049855;28;20859;-78
2022/09/08 05:52:23;;;;;;;1.47;1.37;;;;;;;;;;5050881;28;20453;-77
2022/09/08 05:54:50;;;;;;;2.10;1.83;;;;;;;;;;5054813;28;20499;-76
2022/09/08 05:57:17;;;;;;;1.90;1.80;;;;;;;;;;5054083;28;20477;-77
2022/09/08 05:59:44;;;;;;;2.37;1.70;;;;;;;;;;5055265;28;20446;-77
2022/09/08 06:02:12;;;;;;;1.90;1.80;;;;;;;;;;5054963;28;20495;-77
2022/09/08 06:04:40;;;;;;;1.63;1.50;;;;;;;;;;5053705;28;20467;-76
2022/09/08 06:07:07;;;;;;;1.63;1.33;;;;;;;;;;5051695;28;20466;-77
2022/09/08 06:09:34;;;;;;;6.10;1.90;;;;;;;;;;5050552;28;20446;-77
2022/09/08 06:12:01;;;;;;;3.20;1.93;;;;;;;;;;5052087;28;20441;-77
2022/09/08 06:14:28;;;;;;;1.80;1.40;;;;;;;;;;5053718;28;20811;-77
2022/09/08 06:16:55;;;;;;;1.40;1.30;;;;;;;;;;5053839;28;20469;-78
2022/09/08 06:19:23;;;;;;;1.60;1.30;;;;;;;;;;5053841;28;20445;-77
2022/09/08 06:21:50;;;;;;;1.90;1.13;;;;;;;;;;5053963;28;20449;-77
2022/09/08 06:24:17;;;;;;;1.20;1.20;;;;;;;;;;5053307;28;20477;-77
2022/09/08 06:26:58;;;;;;;1.80;1.23;;;;;;;;;;5053190;28;20802;-77
2022/09/08 06:29:40;;;;;;;1.17;1.07;;;;;;;;;;5054019;28;20460;-76
2022/09/08 06:32:14;;;;;;;1.17;1.07;;;;;;;;;;5051351;28;20499;-77
2022/09/08 06:34:44;;;;;;;3.67;1.33;;;;;;;;;;5053398;28;20811;-77
2022/09/08 06:37:13;;;;;;;1.30;1.20;;;;;;;;;;5053221;28;20964;-78
2022/09/08 06:39:43;;;;;;;2.23;1.20;;;;;;;;;;5053290;28;20452;-77
2022/09/08 06:42:11;;;;;;;1.03;1.03;;;;;;;;;;5053136;28;20540;-77
2022/09/08 06:47:41;;;;;;;0.97;0.97;;;;;;;;;;4962627;28;20445;-76
2022/09/08 06:50:10;;;;;;;1.17;0.97;;;;;;;;;;5050493;28;20453;-75
2022/09/08 06:52:44;;;;;;;1.23;1.00;;;;;;;;;;5052767;28;20937;-77
2022/09/08 06:55:16;;;;;;;1.10;1.00;;;;;;;;;;5053124;28;20515;-76
2022/09/08 06:57:46;;;;;;;1.70;0.90;;;;;;;;;;5052903;28;20474;-76
2022/09/08 07:00:31;;;;;;;1.07;0.83;;;;;;;;;;5054019;28;20478;-77
2022/09/08 07:03:03;;;;;;;2.53;1.00;;;;;;;;;;5052900;28;20482;-76
2022/09/08 07:05:45;;;;;;;1.00;1.00;;;;;;;;;;5052973;28;20523;-76
2022/09/08 07:08:17;;;;;;;0.90;0.90;;;;;;;;;;5052464;28;21208;-77
2022/09/08 07:10:47;;;;;;;1.77;1.20;;;;;;;;;;5052593;28;20913;-77
2022/09/08 07:13:19;;;;;;;1.83;1.27;;;;;;;;;;5052255;28;20923;-76
2022/09/08 07:15:50;;;;;;;1.37;1.13;;;;;;;;;;5052704;28;20552;-76
2022/09/08 07:18:20;;;;;;;3.10;1.50;;;;;;;;;;5053158;28;20504;-77
2022/09/08 07:20:49;;;;;;;1.20;1.10;;;;;;;;;;5052318;28;20500;-77
2022/09/08 07:23:17;;;;;;;3.47;1.40;;;;;;;;;;5051514;28;20565;-77
2022/09/08 07:25:47;;;;;;;2.10;1.37;;;;;;;;;;5052551;28;20720;-76
2022/09/08 07:28:16;;;;;;;1.10;1.00;;;;;;;;;;5052399;28;20530;-76
2022/09/08 07:30:43;;;;;;;3.20;1.60;;;;;;;;;;5052915;28;20548;-77
2022/09/08 07:33:15;;;;;;;1.70;1.40;;;;;;;;;;5052603;28;20438;-77
2022/09/08 07:36:07;;;;;;;1.47;1.37;;;;;;;;;;5053119;28;20967;-77
2022/09/08 07:38:36;;;;;;;2.50;1.20;;;;;;;;;;5052236;28;20485;-77
2022/09/08 07:41:05;;;;;;;2.77;1.70;;;;;;;;;;5052376;28;20449;-77
2022/09/08 07:43:32;;;;;;;3.13;1.23;;;;;;;;;;5052122;28;20469;-77
2022/09/08 07:46:05;;;;;;;4.90;1.20;;;;;;;;;;5052746;28;20938;-77
2022/09/08 07:48:34;;;;;;;0.90;0.90;;;;;;;;;;5052174;28;20557;-77
2022/09/08 07:51:06;;;;;;;1.20;1.10;;;;;;;;;;5053191;28;20442;-77
2022/09/08 07:53:55;;;;;;;0.90;0.83;;;;;;;;;;5052544;28;20462;-77
2022/09/08 07:56:24;;;;;;;0.97;0.80;;;;;;;;;;5047997;28;20457;-77
2022/09/08 07:59:07;;;;;;;1.10;1.00;;;;;;;;;;5052774;28;20462;-77
2022/09/08 08:01:39;;;;;;;1.30;1.20;;;;;;;;;;5052269;28;20433;-77
2022/09/08 08:04:15;;;;;;;3.83;0.90;;;;;;;;;;5052256;28;20493;-76
2022/09/08 08:06:48;;;;;;;1.23;0.90;;;;;;;;;;5052168;28;20445;-77
2022/09/08 08:09:20;;;;;;;1.90;1.13;;;;;;;;;;5052914;28;20446;-77
2022/09/08 08:11:54;;;;;;;0.90;0.90;;;;;;;;;;5052185;28;20971;-77
2022/09/08 08:14:27;;;;;;;2.17;1.00;;;;;;;;;;5051933;28;20487;-77
2022/09/08 08:17:01;;;;;;;0.70;0.70;;;;;;;;;;5052748;28;20871;-78
2022/09/08 08:19:45;;;;;;;1.20;1.10;;;;;;;;;;5052564;28;20434;-77
2022/09/08 08:22:18;;;;;;;0.87;0.87;;;;;;;;;;5051878;28;20441;-77
2022/09/08 08:24:50;;;;;;;0.83;0.83;;;;;;;;;;5051462;28;21070;-77
2022/09/08 08:27:20;;;;;;;2.00;0.90;;;;;;;;;;5051710;28;20469;-77
2022/09/08 08:30:11;;;;;;;0.77;0.77;;;;;;;;;;5051709;28;20445;-77
2022/09/08 08:32:40;;;;;;;0.83;0.80;;;;;;;;;;5036591;28;20446;-78
2022/09/08 08:35:09;;;;;;;1.03;0.83;;;;;;;;;;5050739;28;20451;-77
2022/09/08 08:37:40;;;;;;;1.10;0.90;;;;;;;;;;5051820;28;20489;-77
2022/09/08 08:40:15;;;;;;;0.70;0.70;;;;;;;;;;5051283;28;20507;-77
2022/09/08 08:42:48;;;;;;;0.87;0.87;;;;;;;;;;5051586;28;20449;-77
2022/09/08 08:45:20;;;;;;;1.00;0.90;;;;;;;;;;5050980;28;20547;-77
2022/09/08 08:48:04;;;;;;;0.77;0.70;;;;;;;;;;5051613;28;20488;-78
2022/09/08 08:50:42;;;;;;;1.90;1.00;;;;;;;;;;5051300;28;20453;-77
2022/09/08 08:53:27;;;;;;;1.90;1.03;;;;;;;;;;5051355;28;20499;-77
2022/09/08 08:55:58;;;;;;;0.70;0.70;;;;;;;;;;5050902;28;20929;-78
2022/09/08 08:58:44;;;;;;;0.80;0.80;;;;;;;;;;5050890;28;20953;-77
2022/09/08 09:01:20;;;;;;;1.00;0.97;;;;;;;;;;5051359;28;20491;-77
2022/09/08 09:03:55;;;;;;;0.90;0.73;;;;;;;;;;5050534;28;20457;-78
2022/09/08 09:06:31;;;;;;;1.00;1.00;;;;;;;;;;5051110;28;20461;-77
2022/09/08 09:09:17;;;;;;;0.73;0.73;;;;;;;;;;5051198;28;20544;-77
2022/09/08 09:11:52;;;;;;;1.27;0.80;;;;;;;;;;5051264;28;20533;-77
2022/09/08 09:14:27;;;;;;;2.23;0.90;;;;;;;;;;5050511;28;20449;-78
2022/09/08 09:17:04;;;;;;;2.43;1.00;;;;;;;;;;5050843;28;20469;-77
2022/09/08 09:19:43;;;;;;;0.80;0.80;;;;;;;;;;5050805;28;20445;-77
2022/09/08 09:22:16;;;;;;;1.33;0.93;;;;;;;;;;5050950;28;20507;-77
2022/09/08 09:24:53;;;;;;;1.70;0.97;;;;;;;;;;5050186;28;20473;-77
2022/09/08 09:27:27;;;;;;;1.00;1.00;;;;;;;;;;5050620;28;20493;-77
2022/09/08 09:30:03;;;;;;;0.90;0.90;;;;;;;;;;5050674;28;20454;-77
2022/09/08 09:32:49;;;;;;;1.03;0.90;;;;;;;;;;5050187;28;20445;-77
2022/09/08 09:35:28;;;;;;;1.27;0.80;;;;;;;;;;5050933;28;20920;-77
2022/09/08 09:38:06;;;;;;;0.87;0.80;;;;;;;;;;5050621;28;20534;-76
2022/09/08 09:40:44;;;;;;;1.77;1.00;;;;;;;;;;5051080;28;20971;-77
2022/09/08 09:43:19;;;;;;;2.93;1.60;;;;;;;;;;5050827;28;20488;-77
2022/09/08 09:46:00;;;;;;;1.17;1.00;;;;;;;;;;5050892;28;20861;-77
2022/09/08 09:48:32;;;;;;;0.70;0.60;;;;;;;;;;5055013;28;20568;-77
2022/09/08 09:51:09;;;;;;;1.27;0.90;;;;;;;;;;5054972;28;20441;-77
2022/09/08 09:53:50;;;;;;;1.20;1.10;;;;;;;;;;5054506;28;20437;-76
2022/09/08 09:56:29;;;;;;;1.00;0.90;;;;;;;;;;5054290;28;20687;-77
2022/09/08 09:59:12;;;;;;;0.80;0.80;;;;;;;;;;5054426;28;20444;-77
2022/09/08 10:02:00;;;;;;;1.37;0.80;;;;;;;;;;5021680;28;20495;-77
2022/09/08 10:04:44;;;;;;;1.80;0.70;;;;;;;;;;5048729;28;20477;-77
2022/09/08 10:07:32;;;;;;;0.60;0.60;;;;;;;;;;5023330;28;20457;-76
2022/09/08 10:10:18;;;;;;;0.73;0.70;;;;;;;;;;5054491;28;20812;-77
2022/09/08 10:13:07;;;;;;;2.10;0.80;;;;;;;;;;5053965;28;20441;-78
2022/09/08 10:15:41;;;;;;;3.40;0.80;;;;;;;;;;5054209;28;20454;-77
2022/09/08 10:18:29;;;;;;;1.13;0.90;;;;;;;;;;5053977;28;20464;-77
2022/09/08 10:21:03;;;;;;;0.70;0.70;;;;;;;;;;5053674;28;20437;-77
2022/09/08 10:23:45;;;;;;;0.90;0.83;;;;;;;;;;5056582;28;20438;-77
2022/09/08 10:26:26;;;;;;;0.90;0.90;;;;;;;;;;5058998;28;20491;-77
2022/09/08 10:29:02;;;;;;;1.53;0.80;;;;;;;;;;5058350;28;20495;-77
2022/09/08 10:31:40;;;;;;;1.40;1.10;;;;;;;;;;5054981;28;20453;-77
2022/09/08 10:34:26;;;;;;;1.77;1.00;;;;;;;;;;5053185;28;20433;-77
2022/09/08 10:36:58;;;;;;;0.83;0.83;;;;;;;;;;5053620;28;20473;-78
2022/09/08 10:39:36;;;;;;;1.50;0.80;;;;;;;;;;5054061;28;20453;-77
2022/09/08 10:42:25;;;;;;;1.70;0.87;;;;;;;;;;5053323;28;20871;-78
2022/09/08 10:45:01;;;;;;;2.33;0.93;;;;;;;;;;5053428;28;20481;-78
2022/09/08 10:47:44;;;;;;;2.20;0.90;;;;;;;;;;5053070;28;20461;-77
2022/09/08 10:50:18;;;;;;;1.20;1.10;;;;;;;;;;5053232;28;20500;-77
2022/09/08 10:52:52;;;;;;;0.73;0.70;;;;;;;;;;5053019;28;20932;-76
2022/09/08 10:55:47;;;;;;;2.67;1.40;;;;;;;;;;5053179;28;20441;-76
2022/09/08 10:58:23;;;;;;;1.17;1.00;;;;;;;;;;5053108;28;20462;-77
2022/09/08 11:00:57;;;;;;;0.80;0.70;;;;;;;;;;5058531;28;20452;-76
2022/09/08 11:03:33;;;;;;;1.07;0.97;;;;;;;;;;5059623;28;20878;-75
2022/09/08 11:06:06;;;;;;;1.90;0.83;;;;;;;;;;5061405;28;20484;-77
2022/09/08 11:08:47;;;;;;;1.47;1.03;;;;;;;;;;5059280;28;20813;-78
2022/09/08 11:11:28;;;;;;;1.40;0.87;;;;;;;;;;5054040;28;20441;-76
2022/09/08 11:14:01;;;;;;;0.97;0.87;;;;;;;;;;5052801;28;20476;-78
2022/09/08 11:16:55;;;;;;;1.47;1.00;;;;;;;;;;5053848;28;20438;-76
2022/09/08 11:19:39;;;;;;;1.47;0.90;;;;;;;;;;5016780;28;20453;-77
2022/09/08 11:22:26;;;;;;;1.13;1.00;;;;;;;;;;5053798;28;20438;-77
2022/09/08 11:24:59;;;;;;;1.43;1.33;;;;;;;;;;5037509;28;20489;-76
2022/09/08 11:27:30;;;;;;;1.33;1.20;;;;;;;;;;5062612;28;20539;-77
2022/09/08 11:30:10;;;;;;;0.83;0.83;;;;;;;;;;5055728;28;20441;-76
2022/09/08 11:32:40;;;;;;;1.00;0.90;;;;;;;;;;5053511;28;20460;-78
2022/09/08 11:35:22;;;;;;;0.83;0.83;;;;;;;;;;5052881;28;20860;-77
2022/09/08 11:37:58;;;;;;;0.80;0.80;;;;;;;;;;5053344;28;20469;-77
2022/09/08 11:40:38;;;;;;;1.03;0.90;;;;;;;;;;5053647;28;20868;-77
2022/09/08 11:43:23;;;;;;;0.70;0.70;;;;;;;;;;5052793;28;20414;-76
2022/09/08 11:45:55;;;;;;;3.13;1.40;;;;;;;;;;5052514;28;20553;-77
2022/09/08 11:48:44;;;;;;;3.43;0.90;;;;;;;;;;5052394;28;20465;-78
2022/09/08 11:51:20;;;;;;;1.03;0.80;;;;;;;;;;5052624;28;20857;-78
2022/09/08 11:54:02;;;;;;;1.27;0.97;;;;;;;;;;5052097;28;20495;-77
2022/09/08 11:56:37;;;;;;;2.97;2.00;;;;;;;;;;5051640;28;21003;-77
2022/09/08 11:59:13;;;;;;;5.60;1.77;;;;;;;;;;5051815;28;20864;-77
2022/09/08 12:01:45;;;;;;;4.60;0.93;;;;;;;;;;5051667;28;20506;-77
2022/09/08 12:04:27;;;;;;;3.37;1.20;;;;;;;;;;5051304;28;20452;-77
2022/09/08 12:07:22;;;;;;;2.10;1.10;;;;;;;;;;5049286;28;20481;-77
2022/09/08 12:10:03;;;;;;;1.00;1.00;;;;;;;;;;5051383;28;20441;-76
2022/09/08 12:12:37;;;;;;;1.83;1.00;;;;;;;;;;5051559;28;20449;-77
2022/09/08 12:15:16;;;;;;;2.60;1.33;;;;;;;;;;5051610;28;20449;-77
2022/09/08 12:17:52;;;;;;;1.73;0.90;;;;;;;;;;5051027;28;20996;-78
2022/09/08 12:20:35;;;;;;;1.77;0.77;;;;;;;;;;5052189;28;20433;-77
2022/09/08 12:23:14;;;;;;;2.53;1.10;;;;;;;;;;5052121;28;20491;-77
2022/09/08 12:25:59;;;;;;;1.20;1.10;;;;;;;;;;5051763;28;20528;-77
2022/09/08 12:28:38;;;;;;;0.80;0.70;;;;;;;;;;5051675;28;20470;-77
2022/09/08 12:31:09;;;;;;;5.23;1.30;;;;;;;;;;5051642;28;20446;-78
2022/09/08 12:34:04;;;;;;;1.03;0.60;;;;;;;;;;5051051;28;20463;-76
2022/09/08 12:39:35;;;;;;;2.50;1.00;;;;;;;;;;5044843;28;20460;-77
2022/09/08 12:42:18;;;;;;;2.07;1.20;;;;;;;;;;5051715;28;20476;-77
2022/09/08 12:44:53;;;;;;;2.43;1.00;;;;;;;;;;5051705;28;20527;-76
2022/09/08 12:47:32;;;;;;;1.90;1.10;;;;;;;;;;5051624;28;20457;-78
2022/09/08 12:50:04;;;;;;;1.53;1.30;;;;;;;;;;5051467;28;20445;-77
2022/09/08 12:52:38;;;;;;;2.10;1.10;;;;;;;;;;5051088;28;20441;-78
2022/09/08 12:55:13;;;;;;;2.60;1.40;;;;;;;;;;5051291;28;20448;-76
2022/09/08 12:57:50;;;;;;;2.33;1.27;;;;;;;;;;5051425;28;20984;-77
2022/09/08 13:00:19;;;;;;;1.93;1.00;;;;;;;;;;5051676;28;20468;-77
2022/09/08 13:03:14;;;;;;;1.63;0.70;;;;;;;;;;5051439;28;20549;-77
2022/09/08 13:05:47;;;;;;;1.37;1.27;;;;;;;;;;5026718;28;20492;-77
2022/09/08 13:08:20;;;;;;;2.40;0.83;;;;;;;;;;5050777;28;20469;-76
2022/09/08 13:10:50;;;;;;;1.60;1.20;;;;;;;;;;5055300;28;20445;-77
2022/09/08 13:13:34;;;;;;;1.90;1.00;;;;;;;;;;5070413;28;20643;-77
2022/09/08 13:16:06;;;;;;;0.83;0.83;;;;;;;;;;5070559;28;20451;-77
2022/09/08 13:18:38;;;;;;;1.70;1.00;;;;;;;;;;5070721;28;20521;-77
2022/09/08 13:21:11;;;;;;;2.20;0.83;;;;;;;;;;5069766;28;20539;-78
2022/09/08 13:23:43;;;;;;;1.13;0.90;;;;;;;;;;5069764;28;20886;-77
2022/09/08 13:26:24;;;;;;;2.57;1.20;;;;;;;;;;5070310;28;20534;-76
2022/09/08 13:29:03;;;;;;;0.80;0.80;;;;;;;;;;5070560;28;20452;-76
2022/09/08 13:31:36;;;;;;;2.10;0.93;;;;;;;;;;5069856;28;20518;-77
2022/09/08 13:34:09;;;;;;;1.20;1.10;;;;;;;;;;5069769;28;20536;-76
2022/09/08 13:36:43;;;;;;;1.30;0.80;;;;;;;;;;5070642;28;20447;-76
2022/09/08 13:39:19;;;;;;;0.83;0.80;;;;;;;;;;5070452;28;20523;-77
2022/09/08 13:42:05;;;;;;;1.10;0.90;;;;;;;;;;5070386;28;20689;-77
2022/09/08 13:45:01;;;;;;;0.90;0.90;;;;;;;;;;5069630;28;20589;-76
2022/09/08 13:47:35;;;;;;;2.23;1.00;;;;;;;;;;5069859;28;20874;-76
2022/09/08 13:50:07;;;;;;;2.17;1.07;;;;;;;;;;5070241;28;20453;-77
2022/09/08 13:52:42;;;;;;;0.80;0.80;;;;;;;;;;5070120;28;20471;-77
2022/09/08 13:55:28;;;;;;;0.70;0.70;;;;;;;;;;5070160;28;20466;-76
2022/09/08 13:57:58;;;;;;;2.00;1.50;;;;;;;;;;5070063;28;20472;-77
2022/09/08 14:00:26;;;;;;;2.67;0.90;;;;;;;;;;5070402;28;20441;-77
2022/09/08 14:02:58;;;;;;;1.43;0.83;;;;;;;;;;5069570;28;20452;-77
2022/09/08 14:05:29;;;;;;;1.13;0.90;;;;;;;;;;5069929;28;20476;-77
2022/09/08 14:08:00;;;;;;;0.43;0.43;;;;;;;;;;5069531;28;20530;-77
2022/09/08 14:10:43;;;;;;;1.17;0.80;;;;;;;;;;5070435;28;20460;-77
2022/09/08 14:13:22;;;;;;;1.70;0.70;;;;;;;;;;5052755;28;20430;-78
2022/09/08 14:15:51;;;;;;;2.47;1.07;;;;;;;;;;5050365;28;20503;-77
2022/09/08 14:18:24;;;;;;;1.23;0.90;;;;;;;;;;5050186;28;20461;-76
2022/09/08 14:20:55;;;;;;;1.30;0.90;;;;;;;;;;5049905;28;20446;-78
2022/09/08 14:23:40;;;;;;;0.70;0.70;;;;;;;;;;5050002;28;20457;-77
2022/09/08 14:26:22;;;;;;;1.73;0.80;;;;;;;;;;5042978;28;20492;-77
2022/09/08 14:28:53;;;;;;;0.77;0.77;;;;;;;;;;5049774;28;20473;-77
2022/09/08 14:31:28;;;;;;;1.70;1.00;;;;;;;;;;5051933;28;20446;-77
2022/09/08 14:33:57;;;;;;;7.00;0.80;;;;;;;;;;5056403;28;20487;-77
2022/09/08 14:36:34;;;;;;;3.43;0.70;;;;;;;;;;5059399;28;20513;-78
2022/09/08 14:39:09;;;;;;;2.97;1.23;;;;;;;;;;5057514;28;20433;-77
2022/09/08 14:41:37;;;;;;;0.80;0.60;;;;;;;;;;5056858;28;20487;-77
2022/09/08 14:44:23;;;;;;;1.80;1.20;;;;;;;;;;5056386;28;20499;-77
2022/09/08 14:46:54;;;;;;;1.13;1.07;;;;;;;;;;5056494;28;21008;-76
2022/09/08 14:49:42;;;;;;;2.60;1.00;;;;;;;;;;5054540;28;20886;-77
2022/09/08 14:52:15;;;;;;;6.10;2.50;;;;;;;;;;5054217;28;20519;-77
2022/09/08 14:54:48;;;;;;;1.40;0.83;;;;;;;;;;5054839;28;20947;-78
2022/09/08 14:57:21;;;;;;;2.70;1.27;;;;;;;;;;5053533;28;20473;-79
2022/09/08 15:00:00;;;;;;;1.40;0.90;;;;;;;;;;5063808;28;20425;-77
2022/09/08 15:02:29;;;;;;;1.60;1.10;;;;;;;;;;5069667;28;20426;-77
2022/09/08 15:05:07;;;;;;;1.33;1.10;;;;;;;;;;5056356;28;20503;-77
2022/09/08 15:07:35;;;;;;;2.03;0.77;;;;;;;;;;5052502;28;20469;-77
2022/09/08 15:10:06;;;;;;;1.03;0.87;;;;;;;;;;5053123;28;20529;-77
2022/09/08 15:12:39;;;;;;;1.60;0.80;;;;;;;;;;5071202;28;20445;-78
2022/09/08 15:15:30;;;;;;;3.17;1.00;;;;;;;;;;5073339;28;20510;-77
2022/09/08 15:17:59;;;;;;;1.80;1.00;;;;;;;;;;5070806;28;20499;-77
2022/09/08 15:20:29;;;;;;;1.07;0.70;;;;;;;;;;5095343;28;20782;-77
2022/09/08 15:23:00;;;;;;;1.10;1.00;;;;;;;;;;5096725;28;20420;-77
2022/09/08 15:25:36;;;;;;;2.53;1.47;;;;;;;;;;5094707;28;20534;-76
2022/09/08 15:28:09;;;;;;;1.47;1.27;;;;;;;;;;5074653;28;20456;-77
2022/09/08 15:30:36;;;;;;;1.97;0.90;;;;;;;;;;5073892;28;20444;-77